sensor_id;sensor_type;location;lat;lon;timestamp;P1;durP1;ratioP1;P2;durP2;ratioP2
14040;SDS011;7095;51.388;6.196;2024-03-23T00:55:37;11.93;;;3.63;;
14040;SDS011;7095;51.388;6.196;2024-03-23T00:58:05;12.27;;;4.10;;
14040;SDS011;7095;51.388;6.196;2024-03-23T01:00:31;12.33;;;3.27;;
14040;SDS011;7095;51.388;6.196;2024-03-23T01:02:59;19.73;;;4.27;;
14040;SDS011;7095;51.388;6.196;2024-03-23T01:05:26;12.23;;;4.03;;
14040;SDS011;7095;51.388;6.196;2024-03-23T01:07:54;13.03;;;4.50;;
14040;SDS011;7095;51.388;6.196;2024-03-23T01:10:22;19.43;;;4.47;;
14040;SDS011;7095;51.388;6.196;2024-03-23T01:12:49;19.17;;;4.50;;
14040;SDS011;7095;51.388;6.196;2024-03-23T01:15:16;21.10;;;4.10;;
14040;SDS011;7095;51.388;6.196;2024-03-23T01:17:43;17.33;;;4.47;;
14040;SDS011;7095;51.388;6.196;2024-03-23T01:20:10;18.73;;;4.33;;
14040;SDS011;7095;51.388;6.196;2024-03-23T01:22:38;11.37;;;3.47;;
14040;SDS011;7095;51.388;6.196;2024-03-23T01:25:04;17.87;;;4.20;;
14040;SDS011;7095;51.388;6.196;2024-03-23T01:27:33;18.33;;;4.50;;
14040;SDS011;7095;51.388;6.196;2024-03-23T01:30:00;19.73;;;4.53;;
14040;SDS011;7095;51.388;6.196;2024-03-23T01:32:27;15.97;;;4.40;;
14040;SDS011;7095;51.388;6.196;2024-03-23T01:34:54;18.70;;;5.00;;
14040;SDS011;7095;51.388;6.196;2024-03-23T01:37:22;19.63;;;5.07;;
14040;SDS011;7095;51.388;6.196;2024-03-23T01:39:48;19.57;;;4.10;;
14040;SDS011;7095;51.388;6.196;2024-03-23T01:42:16;17.90;;;4.20;;
14040;SDS011;7095;51.388;6.196;2024-03-23T01:44:44;12.40;;;3.80;;
14040;SDS011;7095;51.388;6.196;2024-03-23T01:47:12;14.97;;;4.07;;
14040;SDS011;7095;51.388;6.196;2024-03-23T01:49:38;12.63;;;3.73;;
14040;SDS011;7095;51.388;6.196;2024-03-23T01:52:06;13.00;;;4.00;;
14040;SDS011;7095;51.388;6.196;2024-03-23T01:54:33;21.33;;;4.70;;
14040;SDS011;7095;51.388;6.196;2024-03-23T01:57:02;19.03;;;5.07;;
14040;SDS011;7095;51.388;6.196;2024-03-23T01:59:28;12.00;;;4.07;;
14040;SDS011;7095;51.388;6.196;2024-03-23T02:01:57;15.07;;;4.30;;
14040;SDS011;7095;51.388;6.196;2024-03-23T02:04:24;12.67;;;4.50;;
14040;SDS011;7095;51.388;6.196;2024-03-23T02:06:52;15.80;;;4.10;;
14040;SDS011;7095;51.388;6.196;2024-03-23T02:09:19;13.33;;;3.60;;
14040;SDS011;7095;51.388;6.196;2024-03-23T02:11:46;13.20;;;3.70;;
14040;SDS011;7095;51.388;6.196;2024-03-23T02:14:13;18.90;;;3.83;;
14040;SDS011;7095;51.388;6.196;2024-03-23T02:16:40;16.17;;;4.23;;
14040;SDS011;7095;51.388;6.196;2024-03-23T02:19:10;22.57;;;4.20;;
14040;SDS011;7095;51.388;6.196;2024-03-23T02:21:38;16.10;;;3.63;;
14040;SDS011;7095;51.388;6.196;2024-03-23T02:24:06;15.00;;;4.00;;
14040;SDS011;7095;51.388;6.196;2024-03-23T02:26:34;16.50;;;4.27;;
14040;SDS011;7095;51.388;6.196;2024-03-23T02:29:00;25.33;;;5.20;;
14040;SDS011;7095;51.388;6.196;2024-03-23T02:31:28;19.17;;;3.87;;
14040;SDS011;7095;51.388;6.196;2024-03-23T02:33:54;14.30;;;4.10;;
14040;SDS011;7095;51.388;6.196;2024-03-23T02:36:22;17.50;;;5.13;;
14040;SDS011;7095;51.388;6.196;2024-03-23T02:38:48;16.63;;;4.40;;
14040;SDS011;7095;51.388;6.196;2024-03-23T02:41:18;17.03;;;5.33;;
14040;SDS011;7095;51.388;6.196;2024-03-23T02:43:49;16.07;;;4.37;;
14040;SDS011;7095;51.388;6.196;2024-03-23T02:46:16;22.47;;;4.53;;
14040;SDS011;7095;51.388;6.196;2024-03-23T02:48:43;14.20;;;4.67;;
14040;SDS011;7095;51.388;6.196;2024-03-23T02:51:11;19.40;;;4.97;;
14040;SDS011;7095;51.388;6.196;2024-03-23T02:53:37;15.50;;;4.63;;
14040;SDS011;7095;51.388;6.196;2024-03-23T02:56:05;17.37;;;4.67;;
14040;SDS011;7095;51.388;6.196;2024-03-23T02:58:34;16.50;;;4.73;;
14040;SDS011;7095;51.388;6.196;2024-03-23T03:01:01;17.17;;;4.93;;
14040;SDS011;7095;51.388;6.196;2024-03-23T03:03:29;17.00;;;5.30;;
14040;SDS011;7095;51.388;6.196;2024-03-23T03:05:55;19.17;;;5.80;;
14040;SDS011;7095;51.388;6.196;2024-03-23T03:08:22;14.93;;;6.30;;
14040;SDS011;7095;51.388;6.196;2024-03-23T03:10:49;18.87;;;6.57;;
14040;SDS011;7095;51.388;6.196;2024-03-23T03:13:16;16.17;;;5.97;;
14040;SDS011;7095;51.388;6.196;2024-03-23T03:15:44;21.97;;;6.33;;
14040;SDS011;7095;51.388;6.196;2024-03-23T03:18:11;26.80;;;6.70;;
14040;SDS011;7095;51.388;6.196;2024-03-23T03:20:38;21.03;;;6.07;;
14040;SDS011;7095;51.388;6.196;2024-03-23T03:23:06;17.47;;;6.27;;
14040;SDS011;7095;51.388;6.196;2024-03-23T03:25:33;21.13;;;6.30;;
14040;SDS011;7095;51.388;6.196;2024-03-23T03:28:01;25.30;;;6.90;;
14040;SDS011;7095;51.388;6.196;2024-03-23T03:30:28;27.80;;;7.30;;
14040;SDS011;7095;51.388;6.196;2024-03-23T03:32:57;24.53;;;6.70;;
14040;SDS011;7095;51.388;6.196;2024-03-23T03:35:23;26.00;;;6.33;;
14040;SDS011;7095;51.388;6.196;2024-03-23T03:37:51;19.37;;;5.70;;
14040;SDS011;7095;51.388;6.196;2024-03-23T03:40:17;23.83;;;6.87;;
14040;SDS011;7095;51.388;6.196;2024-03-23T03:42:45;16.33;;;5.90;;
14040;SDS011;7095;51.388;6.196;2024-03-23T03:45:11;22.27;;;6.47;;
14040;SDS011;7095;51.388;6.196;2024-03-23T03:47:39;15.67;;;6.07;;
14040;SDS011;7095;51.388;6.196;2024-03-23T03:50:07;20.40;;;6.60;;
14040;SDS011;7095;51.388;6.196;2024-03-23T03:52:35;21.00;;;6.33;;
14040;SDS011;7095;51.388;6.196;2024-03-23T03:55:02;18.00;;;6.23;;
14040;SDS011;7095;51.388;6.196;2024-03-23T03:57:31;13.77;;;6.23;;
14040;SDS011;7095;51.388;6.196;2024-03-23T03:59:58;25.20;;;6.43;;
14040;SDS011;7095;51.388;6.196;2024-03-23T04:02:26;22.87;;;6.80;;
14040;SDS011;7095;51.388;6.196;2024-03-23T04:04:53;20.33;;;7.17;;
14040;SDS011;7095;51.388;6.196;2024-03-23T04:07:21;19.43;;;7.30;;
14040;SDS011;7095;51.388;6.196;2024-03-23T04:09:48;22.87;;;8.80;;
14040;SDS011;7095;51.388;6.196;2024-03-23T04:12:16;21.00;;;7.00;;
14040;SDS011;7095;51.388;6.196;2024-03-23T04:14:43;17.17;;;7.50;;
14040;SDS011;7095;51.388;6.196;2024-03-23T04:17:10;21.53;;;7.37;;
14040;SDS011;7095;51.388;6.196;2024-03-23T04:19:37;24.00;;;7.83;;
14040;SDS011;7095;51.388;6.196;2024-03-23T04:22:05;24.87;;;6.90;;
14040;SDS011;7095;51.388;6.196;2024-03-23T04:24:33;22.40;;;6.83;;
14040;SDS011;7095;51.388;6.196;2024-03-23T04:27:01;23.07;;;8.73;;
14040;SDS011;7095;51.388;6.196;2024-03-23T04:29:27;18.43;;;6.60;;
14040;SDS011;7095;51.388;6.196;2024-03-23T04:31:55;17.07;;;7.03;;
14040;SDS011;7095;51.388;6.196;2024-03-23T04:34:22;15.93;;;6.87;;
14040;SDS011;7095;51.388;6.196;2024-03-23T04:36:49;18.03;;;6.27;;
14040;SDS011;7095;51.388;6.196;2024-03-23T04:39:16;24.70;;;6.97;;
14040;SDS011;7095;51.388;6.196;2024-03-23T04:41:46;26.67;;;7.57;;
14040;SDS011;7095;51.388;6.196;2024-03-23T04:44:13;17.40;;;6.67;;
14040;SDS011;7095;51.388;6.196;2024-03-23T04:46:40;19.07;;;6.93;;
14040;SDS011;7095;51.388;6.196;2024-03-23T04:49:08;24.33;;;7.37;;
14040;SDS011;7095;51.388;6.196;2024-03-23T04:51:36;22.03;;;7.13;;
14040;SDS011;7095;51.388;6.196;2024-03-23T04:54:04;22.23;;;7.17;;
14040;SDS011;7095;51.388;6.196;2024-03-23T04:56:33;20.47;;;6.87;;
14040;SDS011;7095;51.388;6.196;2024-03-23T04:59:03;15.17;;;7.20;;
14040;SDS011;7095;51.388;6.196;2024-03-23T05:01:31;21.37;;;7.40;;
14040;SDS011;7095;51.388;6.196;2024-03-23T05:04:02;22.57;;;7.97;;
14040;SDS011;7095;51.388;6.196;2024-03-23T05:06:29;21.43;;;7.27;;
14040;SDS011;7095;51.388;6.196;2024-03-23T05:08:56;20.07;;;7.27;;
14040;SDS011;7095;51.388;6.196;2024-03-23T05:11:23;23.40;;;7.33;;
14040;SDS011;7095;51.388;6.196;2024-03-23T05:13:51;25.20;;;6.77;;
14040;SDS011;7095;51.388;6.196;2024-03-23T05:16:20;20.70;;;7.33;;
14040;SDS011;7095;51.388;6.196;2024-03-23T05:18:46;29.27;;;7.97;;
14040;SDS011;7095;51.388;6.196;2024-03-23T05:21:14;23.27;;;7.90;;
14040;SDS011;7095;51.388;6.196;2024-03-23T05:23:40;22.47;;;7.90;;
14040;SDS011;7095;51.388;6.196;2024-03-23T05:26:09;25.30;;;8.00;;
14040;SDS011;7095;51.388;6.196;2024-03-23T05:28:35;21.67;;;8.97;;
14040;SDS011;7095;51.388;6.196;2024-03-23T05:31:03;26.50;;;8.83;;
14040;SDS011;7095;51.388;6.196;2024-03-23T05:33:31;24.67;;;9.50;;
14040;SDS011;7095;51.388;6.196;2024-03-23T05:35:58;23.47;;;9.53;;
14040;SDS011;7095;51.388;6.196;2024-03-23T05:38:26;29.43;;;9.77;;
14040;SDS011;7095;51.388;6.196;2024-03-23T05:40:54;26.93;;;9.97;;
14040;SDS011;7095;51.388;6.196;2024-03-23T05:43:21;32.83;;;9.97;;
14040;SDS011;7095;51.388;6.196;2024-03-23T05:45:53;33.67;;;10.23;;
14040;SDS011;7095;51.388;6.196;2024-03-23T05:48:20;32.43;;;10.43;;
14040;SDS011;7095;51.388;6.196;2024-03-23T05:50:49;28.10;;;10.83;;
14040;SDS011;7095;51.388;6.196;2024-03-23T05:53:16;36.53;;;11.90;;
14040;SDS011;7095;51.388;6.196;2024-03-23T05:55:44;32.93;;;11.20;;
14040;SDS011;7095;51.388;6.196;2024-03-23T05:58:11;32.57;;;12.33;;
14040;SDS011;7095;51.388;6.196;2024-03-23T06:00:38;38.17;;;12.73;;
14040;SDS011;7095;51.388;6.196;2024-03-23T06:03:05;34.03;;;11.30;;
14040;SDS011;7095;51.388;6.196;2024-03-23T06:05:33;33.97;;;11.70;;
14040;SDS011;7095;51.388;6.196;2024-03-23T06:08:01;33.80;;;11.13;;
14040;SDS011;7095;51.388;6.196;2024-03-23T06:10:29;36.67;;;11.97;;
14040;SDS011;7095;51.388;6.196;2024-03-23T06:12:55;29.97;;;10.27;;
14040;SDS011;7095;51.388;6.196;2024-03-23T06:15:23;31.00;;;11.90;;
14040;SDS011;7095;51.388;6.196;2024-03-23T06:17:50;33.13;;;11.97;;
14040;SDS011;7095;51.388;6.196;2024-03-23T06:20:18;32.97;;;12.67;;
14040;SDS011;7095;51.388;6.196;2024-03-23T06:22:44;27.60;;;11.50;;
14040;SDS011;7095;51.388;6.196;2024-03-23T06:25:13;32.00;;;13.57;;
14040;SDS011;7095;51.388;6.196;2024-03-23T06:27:40;37.63;;;13.33;;
14040;SDS011;7095;51.388;6.196;2024-03-23T06:30:08;33.33;;;14.13;;
14040;SDS011;7095;51.388;6.196;2024-03-23T06:32:36;37.23;;;13.70;;
14040;SDS011;7095;51.388;6.196;2024-03-23T06:35:03;31.43;;;12.50;;
14040;SDS011;7095;51.388;6.196;2024-03-23T06:37:34;35.83;;;13.40;;
14040;SDS011;7095;51.388;6.196;2024-03-23T06:40:03;36.60;;;13.80;;
14040;SDS011;7095;51.388;6.196;2024-03-23T06:42:35;37.87;;;13.63;;
14040;SDS011;7095;51.388;6.196;2024-03-23T06:45:03;38.20;;;13.03;;
14040;SDS011;7095;51.388;6.196;2024-03-23T06:47:30;37.83;;;13.33;;
14040;SDS011;7095;51.388;6.196;2024-03-23T06:49:59;40.20;;;13.97;;
14040;SDS011;7095;51.388;6.196;2024-03-23T06:52:27;34.80;;;13.00;;
14040;SDS011;7095;51.388;6.196;2024-03-23T06:54:55;34.83;;;12.03;;
14040;SDS011;7095;51.388;6.196;2024-03-23T06:57:22;33.40;;;11.37;;
14040;SDS011;7095;51.388;6.196;2024-03-23T06:59:51;35.20;;;11.73;;
14040;SDS011;7095;51.388;6.196;2024-03-23T07:02:18;29.43;;;11.13;;
14040;SDS011;7095;51.388;6.196;2024-03-23T07:04:45;28.80;;;10.87;;
14040;SDS011;7095;51.388;6.196;2024-03-23T07:07:12;32.57;;;11.13;;
14040;SDS011;7095;51.388;6.196;2024-03-23T07:09:39;26.53;;;10.90;;
14040;SDS011;7095;51.388;6.196;2024-03-23T07:12:06;29.87;;;10.70;;
14040;SDS011;7095;51.388;6.196;2024-03-23T07:14:33;26.17;;;9.83;;
14040;SDS011;7095;51.388;6.196;2024-03-23T07:17:01;28.17;;;10.77;;
14040;SDS011;7095;51.388;6.196;2024-03-23T07:19:29;30.47;;;10.60;;
14040;SDS011;7095;51.388;6.196;2024-03-23T07:21:55;22.63;;;9.20;;
14040;SDS011;7095;51.388;6.196;2024-03-23T07:24:23;28.40;;;9.53;;
14040;SDS011;7095;51.388;6.196;2024-03-23T07:26:49;22.10;;;9.47;;
14040;SDS011;7095;51.388;6.196;2024-03-23T07:29:17;22.77;;;9.67;;
14040;SDS011;7095;51.388;6.196;2024-03-23T07:31:43;30.17;;;10.60;;
14040;SDS011;7095;51.388;6.196;2024-03-23T07:34:14;28.33;;;9.87;;
14040;SDS011;7095;51.388;6.196;2024-03-23T07:36:41;23.63;;;8.90;;
14040;SDS011;7095;51.388;6.196;2024-03-23T07:39:08;26.17;;;9.63;;
14040;SDS011;7095;51.388;6.196;2024-03-23T07:41:35;29.17;;;9.40;;
14040;SDS011;7095;51.388;6.196;2024-03-23T07:44:05;24.00;;;9.47;;
14040;SDS011;7095;51.388;6.196;2024-03-23T07:46:35;25.10;;;8.80;;
14040;SDS011;7095;51.388;6.196;2024-03-23T07:49:04;25.83;;;8.37;;
14040;SDS011;7095;51.388;6.196;2024-03-23T07:51:32;22.47;;;8.23;;
14040;SDS011;7095;51.388;6.196;2024-03-23T07:54:00;14.80;;;5.70;;
14040;SDS011;7095;51.388;6.196;2024-03-23T07:56:27;11.20;;;2.93;;
14040;SDS011;7095;51.388;6.196;2024-03-23T07:58:54;8.97;;;2.20;;
14040;SDS011;7095;51.388;6.196;2024-03-23T08:01:22;5.67;;;2.13;;
14040;SDS011;7095;51.388;6.196;2024-03-23T08:03:49;10.23;;;3.47;;
14040;SDS011;7095;51.388;6.196;2024-03-23T08:06:17;6.43;;;2.70;;
14040;SDS011;7095;51.388;6.196;2024-03-23T08:08:54;3.80;;;2.27;;
14040;SDS011;7095;51.388;6.196;2024-03-23T08:11:26;6.57;;;3.20;;
14040;SDS011;7095;51.388;6.196;2024-03-23T08:13:53;7.13;;;3.17;;
14040;SDS011;7095;51.388;6.196;2024-03-23T08:16:22;9.40;;;4.60;;
14040;SDS011;7095;51.388;6.196;2024-03-23T08:18:50;14.40;;;5.93;;
14040;SDS011;7095;51.388;6.196;2024-03-23T08:21:18;13.63;;;6.63;;
14040;SDS011;7095;51.388;6.196;2024-03-23T08:23:46;19.03;;;6.77;;
14040;SDS011;7095;51.388;6.196;2024-03-23T08:26:15;16.07;;;6.83;;
14040;SDS011;7095;51.388;6.196;2024-03-23T08:28:43;19.17;;;8.20;;
14040;SDS011;7095;51.388;6.196;2024-03-23T08:31:12;17.70;;;8.00;;
14040;SDS011;7095;51.388;6.196;2024-03-23T08:33:40;28.33;;;8.77;;
14040;SDS011;7095;51.388;6.196;2024-03-23T08:36:10;26.20;;;8.40;;
14040;SDS011;7095;51.388;6.196;2024-03-23T08:38:38;20.67;;;9.80;;
14040;SDS011;7095;51.388;6.196;2024-03-23T08:41:07;15.53;;;7.57;;
14040;SDS011;7095;51.388;6.196;2024-03-23T08:43:36;29.60;;;8.43;;
14040;SDS011;7095;51.388;6.196;2024-03-23T08:46:05;28.03;;;7.07;;
14040;SDS011;7095;51.388;6.196;2024-03-23T08:48:32;18.60;;;7.10;;
14040;SDS011;7095;51.388;6.196;2024-03-23T08:51:01;17.83;;;6.57;;
14040;SDS011;7095;51.388;6.196;2024-03-23T08:53:29;20.00;;;5.73;;
14040;SDS011;7095;51.388;6.196;2024-03-23T08:55:58;16.43;;;5.87;;
14040;SDS011;7095;51.388;6.196;2024-03-23T08:58:28;15.93;;;5.47;;
14040;SDS011;7095;51.388;6.196;2024-03-23T09:00:57;17.10;;;5.83;;
14040;SDS011;7095;51.388;6.196;2024-03-23T09:03:30;24.67;;;5.00;;
14040;SDS011;7095;51.388;6.196;2024-03-23T09:05:57;24.67;;;5.03;;
14040;SDS011;7095;51.388;6.196;2024-03-23T09:08:25;18.47;;;4.33;;
14040;SDS011;7095;51.388;6.196;2024-03-23T09:10:53;15.67;;;4.07;;
14040;SDS011;7095;51.388;6.196;2024-03-23T09:13:20;12.80;;;3.83;;
14040;SDS011;7095;51.388;6.196;2024-03-23T09:15:50;17.00;;;4.33;;
14040;SDS011;7095;51.388;6.196;2024-03-23T09:18:20;24.17;;;4.60;;
14040;SDS011;7095;51.388;6.196;2024-03-23T09:20:48;19.13;;;4.90;;
14040;SDS011;7095;51.388;6.196;2024-03-23T09:23:14;13.40;;;4.20;;
14040;SDS011;7095;51.388;6.196;2024-03-23T09:25:42;21.73;;;5.03;;
14040;SDS011;7095;51.388;6.196;2024-03-23T09:28:09;20.67;;;4.10;;
14040;SDS011;7095;51.388;6.196;2024-03-23T09:30:36;13.03;;;3.47;;
14040;SDS011;7095;51.388;6.196;2024-03-23T09:33:09;17.13;;;3.93;;
14040;SDS011;7095;51.388;6.196;2024-03-23T09:35:37;17.43;;;3.40;;
14040;SDS011;7095;51.388;6.196;2024-03-23T09:38:04;15.60;;;3.83;;
14040;SDS011;7095;51.388;6.196;2024-03-23T09:40:33;15.93;;;3.67;;
14040;SDS011;7095;51.388;6.196;2024-03-23T09:43:00;18.57;;;3.07;;
14040;SDS011;7095;51.388;6.196;2024-03-23T09:45:28;11.20;;;3.30;;
14040;SDS011;7095;51.388;6.196;2024-03-23T09:47:55;16.33;;;3.27;;
14040;SDS011;7095;51.388;6.196;2024-03-23T09:50:25;8.57;;;2.70;;
14040;SDS011;7095;51.388;6.196;2024-03-23T09:52:51;12.10;;;3.83;;
14040;SDS011;7095;51.388;6.196;2024-03-23T09:55:19;11.97;;;3.50;;
14040;SDS011;7095;51.388;6.196;2024-03-23T09:57:46;8.40;;;3.33;;
14040;SDS011;7095;51.388;6.196;2024-03-23T10:00:15;6.40;;;1.27;;
14040;SDS011;7095;51.388;6.196;2024-03-23T10:02:42;4.53;;;0.63;;
14040;SDS011;7095;51.388;6.196;2024-03-23T10:05:19;2.90;;;0.77;;
14040;SDS011;7095;51.388;6.196;2024-03-23T10:07:49;5.97;;;1.97;;
14040;SDS011;7095;51.388;6.196;2024-03-23T10:10:17;5.37;;;1.33;;
14040;SDS011;7095;51.388;6.196;2024-03-23T10:12:45;4.83;;;0.90;;
14040;SDS011;7095;51.388;6.196;2024-03-23T10:15:20;3.63;;;0.97;;
14040;SDS011;7095;51.388;6.196;2024-03-23T10:17:48;4.43;;;1.30;;
14040;SDS011;7095;51.388;6.196;2024-03-23T10:20:19;3.93;;;1.20;;
14040;SDS011;7095;51.388;6.196;2024-03-23T10:22:50;5.47;;;2.17;;
14040;SDS011;7095;51.388;6.196;2024-03-23T10:25:22;2.90;;;1.50;;
14040;SDS011;7095;51.388;6.196;2024-03-23T10:27:59;9.93;;;2.43;;
14040;SDS011;7095;51.388;6.196;2024-03-23T10:30:27;9.07;;;2.20;;
14040;SDS011;7095;51.388;6.196;2024-03-23T10:33:07;5.47;;;1.90;;
14040;SDS011;7095;51.388;6.196;2024-03-23T10:35:36;7.63;;;3.00;;
14040;SDS011;7095;51.388;6.196;2024-03-23T10:38:06;7.57;;;3.00;;
14040;SDS011;7095;51.388;6.196;2024-03-23T10:40:34;7.63;;;2.90;;
14040;SDS011;7095;51.388;6.196;2024-03-23T10:43:03;8.87;;;3.83;;
14040;SDS011;7095;51.388;6.196;2024-03-23T10:45:30;7.37;;;3.53;;
14040;SDS011;7095;51.388;6.196;2024-03-23T10:48:01;13.03;;;4.50;;
14040;SDS011;7095;51.388;6.196;2024-03-23T10:50:28;9.57;;;4.63;;
14040;SDS011;7095;51.388;6.196;2024-03-23T10:52:56;11.43;;;4.10;;
14040;SDS011;7095;51.388;6.196;2024-03-23T10:55:28;12.07;;;4.50;;
14040;SDS011;7095;51.388;6.196;2024-03-23T10:58:01;17.10;;;4.53;;
14040;SDS011;7095;51.388;6.196;2024-03-23T11:00:28;17.17;;;5.13;;
14040;SDS011;7095;51.388;6.196;2024-03-23T11:02:56;10.47;;;2.20;;
14040;SDS011;7095;51.388;6.196;2024-03-23T11:05:28;4.77;;;2.53;;
14040;SDS011;7095;51.388;6.196;2024-03-23T11:07:57;8.20;;;2.57;;
14040;SDS011;7095;51.388;6.196;2024-03-23T11:10:24;10.47;;;3.50;;
14040;SDS011;7095;51.388;6.196;2024-03-23T11:12:55;8.43;;;2.37;;
14040;SDS011;7095;51.388;6.196;2024-03-23T11:15:22;10.27;;;3.07;;
14040;SDS011;7095;51.388;6.196;2024-03-23T11:18:02;6.30;;;2.50;;
14040;SDS011;7095;51.388;6.196;2024-03-23T11:20:33;10.40;;;3.53;;
14040;SDS011;7095;51.388;6.196;2024-03-23T11:23:02;11.30;;;3.17;;
14040;SDS011;7095;51.388;6.196;2024-03-23T11:25:30;10.23;;;3.30;;
14040;SDS011;7095;51.388;6.196;2024-03-23T11:27:58;7.90;;;2.60;;
14040;SDS011;7095;51.388;6.196;2024-03-23T11:30:37;9.93;;;2.63;;
14040;SDS011;7095;51.388;6.196;2024-03-23T11:33:05;8.37;;;1.97;;
14040;SDS011;7095;51.388;6.196;2024-03-23T11:35:33;9.57;;;2.67;;
14040;SDS011;7095;51.388;6.196;2024-03-23T11:38:02;8.13;;;2.57;;
14040;SDS011;7095;51.388;6.196;2024-03-23T11:40:31;11.00;;;3.23;;
14040;SDS011;7095;51.388;6.196;2024-03-23T11:43:00;10.33;;;3.13;;
14040;SDS011;7095;51.388;6.196;2024-03-23T11:45:28;7.27;;;2.33;;
14040;SDS011;7095;51.388;6.196;2024-03-23T11:48:02;13.47;;;2.97;;
14040;SDS011;7095;51.388;6.196;2024-03-23T11:50:31;8.97;;;2.67;;
14040;SDS011;7095;51.388;6.196;2024-03-23T11:53:09;7.67;;;2.17;;
14040;SDS011;7095;51.388;6.196;2024-03-23T11:55:43;8.97;;;2.70;;
14040;SDS011;7095;51.388;6.196;2024-03-23T11:58:13;8.43;;;2.63;;
14040;SDS011;7095;51.388;6.196;2024-03-23T12:00:41;12.57;;;3.70;;
14040;SDS011;7095;51.388;6.196;2024-03-23T12:03:10;14.33;;;3.40;;
14040;SDS011;7095;51.388;6.196;2024-03-23T12:05:37;13.83;;;3.57;;
14040;SDS011;7095;51.388;6.196;2024-03-23T12:08:21;9.23;;;2.40;;
14040;SDS011;7095;51.388;6.196;2024-03-23T12:10:51;6.07;;;2.70;;
14040;SDS011;7095;51.388;6.196;2024-03-23T12:13:20;9.57;;;3.27;;
14040;SDS011;7095;51.388;6.196;2024-03-23T12:15:49;13.97;;;4.33;;
14040;SDS011;7095;51.388;6.196;2024-03-23T12:18:19;7.10;;;3.23;;
14040;SDS011;7095;51.388;6.196;2024-03-23T12:20:50;13.20;;;3.90;;
14040;SDS011;7095;51.388;6.196;2024-03-23T12:23:18;5.47;;;2.80;;
14040;SDS011;7095;51.388;6.196;2024-03-23T12:25:48;7.03;;;2.97;;
14040;SDS011;7095;51.388;6.196;2024-03-23T12:28:19;9.50;;;3.00;;
14040;SDS011;7095;51.388;6.196;2024-03-23T12:30:48;10.37;;;3.47;;
14040;SDS011;7095;51.388;6.196;2024-03-23T12:33:16;12.30;;;3.70;;
14040;SDS011;7095;51.388;6.196;2024-03-23T12:35:43;6.97;;;2.83;;
14040;SDS011;7095;51.388;6.196;2024-03-23T12:38:11;5.83;;;2.40;;
14040;SDS011;7095;51.388;6.196;2024-03-23T12:40:37;7.13;;;2.43;;
14040;SDS011;7095;51.388;6.196;2024-03-23T12:43:05;5.83;;;1.87;;
14040;SDS011;7095;51.388;6.196;2024-03-23T12:45:33;8.10;;;2.60;;
14040;SDS011;7095;51.388;6.196;2024-03-23T12:48:00;7.53;;;1.93;;
14040;SDS011;7095;51.388;6.196;2024-03-23T12:50:27;2.47;;;1.27;;
14040;SDS011;7095;51.388;6.196;2024-03-23T12:52:55;4.63;;;1.50;;
14040;SDS011;7095;51.388;6.196;2024-03-23T12:55:21;3.00;;;0.70;;
14040;SDS011;7095;51.388;6.196;2024-03-23T12:57:49;3.60;;;1.13;;
14040;SDS011;7095;51.388;6.196;2024-03-23T13:00:16;3.80;;;1.10;;
14040;SDS011;7095;51.388;6.196;2024-03-23T13:02:45;4.30;;;1.03;;
14040;SDS011;7095;51.388;6.196;2024-03-23T13:05:12;2.57;;;0.23;;
14040;SDS011;7095;51.388;6.196;2024-03-23T13:07:40;3.43;;;1.10;;
14040;SDS011;7095;51.388;6.196;2024-03-23T13:10:07;3.70;;;0.67;;
14040;SDS011;7095;51.388;6.196;2024-03-23T13:12:36;5.70;;;0.90;;
14040;SDS011;7095;51.388;6.196;2024-03-23T13:15:03;6.37;;;1.20;;
14040;SDS011;7095;51.388;6.196;2024-03-23T13:17:31;4.03;;;1.00;;
14040;SDS011;7095;51.388;6.196;2024-03-23T13:19:59;3.50;;;1.37;;
14040;SDS011;7095;51.388;6.196;2024-03-23T13:22:27;3.37;;;1.30;;
14040;SDS011;7095;51.388;6.196;2024-03-23T13:24:53;7.77;;;1.60;;
14040;SDS011;7095;51.388;6.196;2024-03-23T13:27:21;7.50;;;2.10;;
14040;SDS011;7095;51.388;6.196;2024-03-23T13:29:47;8.33;;;2.03;;
14040;SDS011;7095;51.388;6.196;2024-03-23T13:32:16;4.00;;;1.67;;
14040;SDS011;7095;51.388;6.196;2024-03-23T13:34:42;5.20;;;1.60;;
14040;SDS011;7095;51.388;6.196;2024-03-23T13:37:12;9.80;;;1.90;;
14040;SDS011;7095;51.388;6.196;2024-03-23T13:39:38;6.40;;;1.70;;
14040;SDS011;7095;51.388;6.196;2024-03-23T13:42:07;8.00;;;2.03;;
14040;SDS011;7095;51.388;6.196;2024-03-23T13:44:35;6.57;;;1.97;;
14040;SDS011;7095;51.388;6.196;2024-03-23T14:07:42;2.67;;;0.90;;
14040;SDS011;7095;51.388;6.196;2024-03-23T14:10:12;2.53;;;0.93;;
14040;SDS011;7095;51.388;6.196;2024-03-23T14:12:39;8.90;;;1.40;;
14040;SDS011;7095;51.388;6.196;2024-03-23T14:15:07;5.07;;;1.27;;
14040;SDS011;7095;51.388;6.196;2024-03-23T14:17:34;6.30;;;1.73;;
14040;SDS011;7095;51.388;6.196;2024-03-23T14:20:02;4.13;;;1.33;;
14040;SDS011;7095;51.388;6.196;2024-03-23T14:22:31;4.17;;;1.40;;
14040;SDS011;7095;51.388;6.196;2024-03-23T14:25:00;5.03;;;1.23;;
14040;SDS011;7095;51.388;6.196;2024-03-23T14:27:27;6.83;;;1.43;;
14040;SDS011;7095;51.388;6.196;2024-03-23T14:29:55;4.20;;;1.63;;
14040;SDS011;7095;51.388;6.196;2024-03-23T14:32:22;4.23;;;1.50;;
14040;SDS011;7095;51.388;6.196;2024-03-23T14:34:50;6.00;;;2.07;;
14040;SDS011;7095;51.388;6.196;2024-03-23T14:37:19;4.53;;;1.63;;
14040;SDS011;7095;51.388;6.196;2024-03-23T14:39:47;6.77;;;1.50;;
14040;SDS011;7095;51.388;6.196;2024-03-23T14:42:15;4.20;;;1.53;;
14040;SDS011;7095;51.388;6.196;2024-03-23T14:44:43;2.37;;;1.40;;
14040;SDS011;7095;51.388;6.196;2024-03-23T14:47:10;4.73;;;1.63;;
14040;SDS011;7095;51.388;6.196;2024-03-23T14:49:38;4.27;;;1.00;;
14040;SDS011;7095;51.388;6.196;2024-03-23T14:52:05;6.80;;;1.63;;
14040;SDS011;7095;51.388;6.196;2024-03-23T14:54:33;6.83;;;1.67;;
14040;SDS011;7095;51.388;6.196;2024-03-23T14:57:01;5.70;;;1.67;;
14040;SDS011;7095;51.388;6.196;2024-03-23T14:59:30;2.80;;;1.53;;
14040;SDS011;7095;51.388;6.196;2024-03-23T15:01:57;5.80;;;2.00;;
14040;SDS011;7095;51.388;6.196;2024-03-23T15:04:27;7.90;;;1.90;;
14040;SDS011;7095;51.388;6.196;2024-03-23T15:06:54;6.13;;;1.47;;
14040;SDS011;7095;51.388;6.196;2024-03-23T15:09:21;12.07;;;2.13;;
14040;SDS011;7095;51.388;6.196;2024-03-23T15:11:48;5.50;;;1.60;;
14040;SDS011;7095;51.388;6.196;2024-03-23T15:14:16;7.70;;;1.90;;
14040;SDS011;7095;51.388;6.196;2024-03-23T15:16:44;5.30;;;2.23;;
14040;SDS011;7095;51.388;6.196;2024-03-23T15:19:13;6.73;;;2.20;;
14040;SDS011;7095;51.388;6.196;2024-03-23T15:21:40;5.67;;;1.30;;
14040;SDS011;7095;51.388;6.196;2024-03-23T15:24:08;4.27;;;1.63;;
14040;SDS011;7095;51.388;6.196;2024-03-23T15:26:37;4.93;;;1.90;;
14040;SDS011;7095;51.388;6.196;2024-03-23T15:29:05;7.27;;;1.47;;
14040;SDS011;7095;51.388;6.196;2024-03-23T15:31:38;5.07;;;1.43;;
14040;SDS011;7095;51.388;6.196;2024-03-23T15:34:07;3.13;;;1.13;;
14040;SDS011;7095;51.388;6.196;2024-03-23T15:36:36;3.50;;;0.70;;
14040;SDS011;7095;51.388;6.196;2024-03-23T15:39:04;2.77;;;0.80;;
14040;SDS011;7095;51.388;6.196;2024-03-23T15:41:30;2.03;;;0.80;;
14040;SDS011;7095;51.388;6.196;2024-03-23T15:44:00;2.00;;;0.67;;
14040;SDS011;7095;51.388;6.196;2024-03-23T15:46:26;2.03;;;0.93;;
14040;SDS011;7095;51.388;6.196;2024-03-23T15:48:54;2.50;;;0.67;;
14040;SDS011;7095;51.388;6.196;2024-03-23T15:51:23;2.77;;;1.00;;
14040;SDS011;7095;51.388;6.196;2024-03-23T15:53:57;2.63;;;0.50;;
14040;SDS011;7095;51.388;6.196;2024-03-23T15:56:23;2.40;;;0.90;;
14040;SDS011;7095;51.388;6.196;2024-03-23T15:58:51;1.23;;;0.70;;
14040;SDS011;7095;51.388;6.196;2024-03-23T16:01:18;1.30;;;0.70;;
14040;SDS011;7095;51.388;6.196;2024-03-23T16:03:45;1.93;;;0.50;;
14040;SDS011;7095;51.388;6.196;2024-03-23T16:06:13;2.60;;;1.00;;
14040;SDS011;7095;51.388;6.196;2024-03-23T16:08:40;4.00;;;0.90;;
14040;SDS011;7095;51.388;6.196;2024-03-23T16:11:08;1.13;;;0.80;;